createdAt,value
2018-09-22T00:00:09.995Z,7.8
2018-09-22T00:01:11.546Z,7.8
2018-09-22T00:02:12.935Z,7.8
2018-09-22T00:03:14.486Z,7.8
2018-09-22T00:04:16.064Z,7.8
2018-09-22T00:05:17.641Z,7.8
2018-09-22T00:06:19.051Z,7.8
2018-09-22T00:07:20.629Z,7.8
2018-09-22T00:08:22.194Z,7.8
2018-09-22T00:09:23.814Z,7.8
2018-09-22T00:10:25.388Z,7.9
2018-09-22T00:11:26.994Z,7.9
2018-09-22T00:12:28.557Z,7.9
2018-09-22T00:13:30.124Z,7.9
2018-09-22T00:14:31.699Z,7.9
2018-09-22T00:15:33.258Z,7.9
2018-09-22T00:16:34.820Z,7.9
2018-09-22T00:17:36.401Z,7.9
2018-09-22T00:18:38.201Z,7.9
2018-09-22T00:19:39.797Z,7.9
2018-09-22T00:20:41.427Z,7.9
2018-09-22T00:21:43.101Z,7.8
2018-09-22T00:22:44.709Z,7.8
2018-09-22T00:23:46.326Z,7.8
2018-09-22T00:24:47.888Z,7.8
2018-09-22T00:25:49.455Z,7.8
2018-09-22T00:26:51.036Z,7.8
2018-09-22T00:27:52.596Z,7.8
2018-09-22T00:28:54.185Z,7.8
2018-09-22T00:29:55.746Z,7.8
2018-09-22T00:30:57.318Z,7.8
2018-09-22T00:31:58.875Z,7.8
2018-09-22T00:33:00.450Z,7.8
2018-09-22T00:34:01.857Z,7.8
2018-09-22T00:35:03.403Z,7.8
2018-09-22T00:36:04.978Z,7.8
2018-09-22T00:37:06.559Z,7.8
2018-09-22T00:38:08.179Z,7.8
2018-09-22T00:39:09.738Z,7.8
2018-09-22T00:40:11.309Z,7.8
2018-09-22T00:41:12.696Z,7.8
2018-09-22T00:42:14.267Z,7.8
2018-09-22T00:43:15.829Z,7.8
2018-09-22T00:44:17.229Z,7.8
2018-09-22T00:45:18.800Z,7.8
2018-09-22T00:46:20.359Z,7.8
2018-09-22T00:47:21.907Z,7.8
2018-09-22T00:48:23.480Z,7.8
2018-09-22T00:49:25.055Z,7.8
2018-09-22T00:50:26.619Z,7.8
2018-09-22T00:51:28.175Z,7.8
2018-09-22T00:52:29.583Z,7.8
2018-09-22T00:53:31.157Z,7.8
2018-09-22T00:54:32.718Z,7.8
2018-09-22T00:55:34.116Z,7.8
2018-09-22T00:56:35.495Z,7.9
2018-09-22T00:57:37.050Z,7.9
2018-09-22T00:58:38.446Z,7.8
2018-09-22T00:59:40.000Z,7.8
2018-09-22T01:00:41.614Z,7.8
2018-09-22T01:01:43.169Z,7.8
2018-09-22T01:02:44.723Z,7.8
2018-09-22T01:03:46.296Z,7.8
2018-09-22T01:04:47.860Z,7.8
2018-09-22T01:05:49.413Z,7.8
2018-09-22T01:06:50.981Z,7.8
2018-09-22T01:07:52.531Z,7.8
2018-09-22T01:08:54.107Z,7.8
2018-09-22T01:09:55.690Z,7.8
2018-09-22T01:10:57.289Z,7.8
2018-09-22T01:11:58.859Z,7.9
2018-09-22T01:13:00.445Z,7.8
2018-09-22T01:14:02.007Z,7.8
2018-09-22T01:15:03.570Z,7.8
2018-09-22T01:16:05.134Z,7.8
2018-09-22T01:17:06.708Z,7.8
2018-09-22T01:18:08.273Z,7.8
2018-09-22T01:19:09.830Z,7.8
2018-09-22T01:20:11.381Z,7.8
2018-09-22T01:21:12.936Z,7.7
2018-09-22T01:22:14.498Z,7.6
2018-09-22T01:23:16.067Z,7.5
2018-09-22T01:24:17.642Z,7.4
2018-09-22T01:25:19.194Z,7.3
2018-09-22T01:26:20.747Z,7.2
2018-09-22T01:27:22.324Z,7.2
2018-09-22T01:28:23.897Z,7.2
2018-09-22T01:29:25.456Z,7.2
2018-09-22T01:30:27.013Z,7.2
2018-09-22T01:31:28.585Z,7.1
2018-09-22T01:32:29.816Z,7.2
2018-09-22T01:33:31.379Z,7.1
2018-09-22T01:34:32.940Z,7.1
2018-09-22T01:35:34.339Z,7.1
2018-09-22T01:36:35.887Z,7.2
2018-09-22T01:37:37.446Z,7.2
2018-09-22T01:38:39.010Z,7.2
2018-09-22T01:39:40.586Z,7.2
2018-09-22T01:40:42.147Z,7.2
2018-09-22T01:41:43.543Z,7.2
2018-09-22T01:42:45.112Z,7.2
2018-09-22T01:43:46.664Z,7.2
2018-09-22T01:44:47.896Z,7.2
2018-09-22T01:45:49.465Z,7.2
2018-09-22T01:46:50.873Z,7.2
2018-09-22T01:47:52.446Z,7.2
2018-09-22T01:48:54.018Z,7.2
2018-09-22T01:49:55.419Z,7.2
2018-09-22T01:50:56.989Z,7.2
2018-09-22T01:51:58.375Z,7.2
2018-09-22T01:52:59.947Z,7.2
2018-09-22T01:54:01.538Z,7.2
2018-09-22T01:55:02.947Z,7.2
2018-09-22T01:56:04.499Z,7.2
2018-09-22T01:57:06.077Z,7.2
2018-09-22T01:58:07.655Z,7.2
2018-09-22T01:59:09.071Z,7.2
2018-09-22T02:00:10.640Z,7.2
2018-09-22T02:01:12.189Z,7.2
2018-09-22T02:02:13.757Z,7.2
2018-09-22T02:03:15.292Z,7.2
2018-09-22T02:04:16.846Z,7.2
2018-09-22T02:05:18.411Z,7.2
2018-09-22T02:06:19.966Z,7.2
2018-09-22T02:07:21.527Z,7.2
2018-09-22T02:08:23.076Z,7.2
2018-09-22T02:09:24.629Z,7.3
2018-09-22T02:10:26.388Z,7.3
2018-09-22T02:11:27.968Z,7.3
2018-09-22T02:12:29.557Z,7.3
2018-09-22T02:13:31.118Z,7.3
2018-09-22T02:14:32.537Z,7.4
2018-09-22T02:15:34.087Z,7.4
2018-09-22T02:16:35.634Z,7.4
2018-09-22T02:17:37.034Z,7.5
2018-09-22T02:18:38.610Z,7.5
2018-09-22T02:19:40.374Z,7.6
2018-09-22T02:20:41.926Z,7.6
2018-09-22T02:21:43.501Z,7.7
2018-09-22T02:22:45.059Z,7.7
2018-09-22T02:23:46.628Z,7.8
2018-09-22T02:24:48.208Z,7.8
2018-09-22T02:25:49.781Z,7.8
2018-09-22T02:26:51.206Z,7.8
2018-09-22T02:27:52.770Z,7.8
2018-09-22T02:28:54.327Z,7.8
2018-09-22T02:29:55.876Z,7.8
2018-09-22T02:30:57.456Z,7.8
2018-09-22T02:31:59.030Z,7.8
2018-09-22T02:33:00.583Z,7.8
2018-09-22T02:34:02.164Z,7.9
2018-09-22T02:35:03.736Z,7.9
2018-09-22T02:36:05.130Z,7.9
2018-09-22T02:37:06.687Z,7.9
2018-09-22T02:38:08.249Z,7.9
2018-09-22T02:39:09.884Z,7.9
2018-09-22T02:40:11.482Z,7.9
2018-09-22T02:41:13.055Z,7.9
2018-09-22T02:42:14.632Z,7.9
2018-09-22T02:43:16.210Z,7.9
2018-09-22T02:44:17.770Z,7.9
2018-09-22T02:45:19.352Z,7.9
2018-09-22T02:46:20.900Z,7.9
2018-09-22T02:47:22.492Z,7.9
2018-09-22T02:48:24.052Z,7.9
2018-09-22T02:49:25.637Z,7.9
2018-09-22T02:50:27.039Z,7.9
2018-09-22T02:51:28.614Z,7.9
2018-09-22T02:52:30.180Z,7.9
2018-09-22T02:53:31.421Z,7.9
2018-09-22T02:54:32.996Z,7.9
2018-09-22T02:55:34.556Z,7.9
2018-09-22T02:56:36.093Z,7.9
2018-09-22T02:57:37.655Z,7.9
2018-09-22T02:58:39.048Z,7.9
2018-09-22T02:59:40.451Z,7.9
2018-09-22T03:00:41.847Z,7.8
2018-09-22T03:01:43.425Z,7.9
2018-09-22T03:02:44.981Z,7.8
2018-09-22T03:03:46.585Z,7.9
2018-09-22T03:04:48.139Z,7.9
2018-09-22T03:05:49.526Z,7.9
2018-09-22T03:06:51.711Z,7.9
2018-09-22T03:07:53.291Z,7.9
2018-09-22T03:08:55.730Z,7.9
2018-09-22T03:09:57.397Z,7.9
2018-09-22T03:10:59.025Z,7.8
2018-09-22T03:12:00.620Z,7.8
2018-09-22T03:13:02.176Z,7.8
2018-09-22T03:14:03.567Z,7.8
2018-09-22T03:15:05.134Z,7.9
2018-09-22T03:16:06.700Z,7.9
2018-09-22T03:17:08.307Z,7.9
2018-09-22T03:18:09.895Z,7.9
2018-09-22T03:19:11.157Z,7.9
2018-09-22T03:20:12.728Z,7.9
2018-09-22T03:21:14.280Z,7.8
2018-09-22T03:22:15.854Z,7.8
2018-09-22T03:23:17.447Z,7.8
2018-09-22T03:24:19.016Z,7.7
2018-09-22T03:25:20.565Z,7.7
2018-09-22T03:26:22.110Z,7.6
2018-09-22T03:27:23.673Z,7.4
2018-09-22T03:28:24.906Z,7.3
2018-09-22T03:29:26.457Z,7.2
2018-09-22T03:30:28.094Z,7.2
2018-09-22T03:31:29.744Z,7.2
2018-09-22T03:32:31.310Z,7.2
2018-09-22T03:33:32.866Z,7.2
2018-09-22T03:34:34.437Z,7.2
2018-09-22T03:35:35.997Z,7.2
2018-09-22T03:36:37.588Z,7.2
2018-09-22T03:37:39.157Z,7.2
2018-09-22T03:38:40.729Z,7.2
2018-09-22T03:39:42.293Z,7.2
2018-09-22T03:40:43.708Z,7.2
2018-09-22T03:41:45.284Z,7.2
2018-09-22T03:42:46.689Z,7.2
2018-09-22T03:43:48.268Z,7.2
2018-09-22T03:44:49.825Z,7.2
2018-09-22T03:45:51.236Z,7.2
2018-09-22T03:46:52.795Z,7.2
2018-09-22T03:47:54.371Z,7.2
2018-09-22T03:48:55.917Z,7.2
2018-09-22T03:49:57.310Z,7.2
2018-09-22T03:50:58.707Z,7.2
2018-09-22T03:52:00.300Z,7.2
2018-09-22T03:53:01.853Z,7.2
2018-09-22T03:54:03.437Z,7.2
2018-09-22T03:55:04.987Z,7.2
2018-09-22T03:56:06.579Z,7.2
2018-09-22T03:57:08.132Z,7.2
2018-09-22T03:58:09.697Z,7.2
2018-09-22T03:59:11.293Z,7.2
2018-09-22T04:00:12.846Z,7.2
2018-09-22T04:01:14.252Z,7.2
2018-09-22T04:02:15.826Z,7.2
2018-09-22T04:03:17.398Z,7.2
2018-09-22T04:04:18.956Z,7.3
2018-09-22T04:05:20.512Z,7.3
2018-09-22T04:06:22.100Z,7.3
2018-09-22T04:07:23.670Z,7.3
2018-09-22T04:08:25.229Z,7.4
2018-09-22T04:09:26.815Z,7.4
2018-09-22T04:10:28.366Z,7.4
2018-09-22T04:11:29.767Z,7.5
2018-09-22T04:12:31.338Z,7.5
2018-09-22T04:13:32.903Z,7.6
2018-09-22T04:14:34.459Z,7.6
2018-09-22T04:15:36.042Z,7.7
2018-09-22T04:16:37.503Z,7.7
2018-09-22T04:17:39.065Z,7.8
2018-09-22T04:18:40.634Z,7.8
2018-09-22T04:19:42.210Z,7.9
2018-09-22T04:20:43.793Z,7.9
2018-09-22T04:21:45.338Z,7.9
2018-09-22T04:22:46.903Z,7.8
2018-09-22T04:23:48.475Z,7.8
2018-09-22T04:24:50.057Z,7.9
2018-09-22T04:25:51.630Z,7.8
2018-09-22T04:26:53.211Z,7.9
2018-09-22T04:27:54.781Z,7.9
2018-09-22T04:28:56.337Z,7.9
2018-09-22T04:29:57.909Z,7.9
2018-09-22T04:30:59.469Z,7.9
2018-09-22T04:32:01.027Z,7.9
2018-09-22T04:33:02.599Z,7.9
2018-09-22T04:34:04.209Z,7.9
2018-09-22T04:35:05.772Z,7.9
2018-09-22T04:36:07.150Z,7.9
2018-09-22T04:37:08.735Z,7.9
2018-09-22T04:38:10.343Z,7.9
2018-09-22T04:39:11.920Z,7.9
2018-09-22T04:40:13.507Z,7.9
2018-09-22T04:41:15.125Z,7.9
2018-09-22T04:42:16.677Z,7.9
2018-09-22T04:43:18.248Z,7.9
2018-09-22T04:44:19.663Z,7.9
2018-09-22T04:45:21.234Z,7.9
2018-09-22T04:46:22.848Z,7.9
2018-09-22T04:47:24.402Z,7.9
2018-09-22T04:48:25.960Z,7.9
2018-09-22T04:49:27.531Z,7.9
2018-09-22T04:50:29.104Z,7.9
2018-09-22T04:51:30.504Z,7.9
2018-09-22T04:52:31.955Z,7.9
2018-09-22T04:53:33.533Z,7.9
2018-09-22T04:54:35.098Z,7.9
2018-09-22T04:55:36.645Z,7.9
2018-09-22T04:56:38.208Z,7.9
2018-09-22T04:57:39.778Z,7.9
2018-09-22T04:58:41.347Z,7.9
2018-09-22T04:59:42.925Z,7.9
2018-09-22T05:00:44.486Z,7.9
2018-09-22T05:01:46.068Z,7.9
2018-09-22T05:02:47.628Z,7.9
2018-09-22T05:03:49.178Z,7.9
2018-09-22T05:04:50.738Z,7.9
2018-09-22T05:05:52.347Z,7.9
2018-09-22T05:06:53.908Z,7.9
2018-09-22T05:07:55.485Z,7.9
2018-09-22T05:08:57.026Z,7.9
2018-09-22T05:09:58.607Z,7.9
2018-09-22T05:11:00.186Z,7.9
2018-09-22T05:12:01.736Z,7.9
2018-09-22T05:13:03.313Z,7.9
2018-09-22T05:14:04.870Z,7.9
2018-09-22T05:15:06.467Z,7.9
2018-09-22T05:16:08.036Z,7.9
2018-09-22T05:17:10.357Z,7.9
2018-09-22T05:18:11.809Z,7.9
2018-09-22T05:19:13.371Z,7.9
2018-09-22T05:20:29.628Z,7.9
2018-09-22T05:21:31.026Z,7.9
2018-09-22T05:22:32.608Z,7.9
2018-09-22T05:23:34.174Z,7.8
2018-09-22T05:24:35.892Z,7.8
2018-09-22T05:25:37.458Z,7.7
2018-09-22T05:26:39.062Z,7.7
2018-09-22T05:27:40.636Z,7.6
2018-09-22T05:28:42.199Z,7.5
2018-09-22T05:29:43.807Z,7.4
2018-09-22T05:30:45.371Z,7.2
2018-09-22T05:31:46.961Z,7.2
2018-09-22T05:32:48.536Z,7.2
2018-09-22T05:33:50.102Z,7.2
2018-09-22T05:34:51.693Z,7.2
2018-09-22T05:35:53.280Z,7.2
2018-09-22T05:36:54.848Z,7.2
2018-09-22T05:37:56.404Z,7.2
2018-09-22T05:38:57.968Z,7.2
2018-09-22T05:39:59.392Z,7.2
2018-09-22T05:41:00.940Z,7.2
2018-09-22T05:42:02.520Z,7.2
2018-09-22T05:43:04.084Z,7.2
2018-09-22T05:44:05.653Z,7.2
2018-09-22T05:45:07.228Z,7.2
2018-09-22T05:46:08.804Z,7.2
2018-09-22T05:47:10.414Z,7.2
2018-09-22T05:48:11.836Z,7.2
2018-09-22T05:49:13.251Z,7.2
2018-09-22T05:50:14.649Z,7.2
2018-09-22T05:51:16.260Z,7.2
2018-09-22T05:52:17.827Z,7.2
2018-09-22T05:53:19.231Z,7.2
2018-09-22T05:54:20.809Z,7.2
2018-09-22T05:55:22.384Z,7.2
2018-09-22T05:56:23.946Z,7.2
2018-09-22T05:57:25.537Z,7.2
2018-09-22T05:58:27.144Z,7.2
2018-09-22T05:59:28.717Z,7.2
2018-09-22T06:00:30.305Z,7.2
2018-09-22T06:01:31.890Z,7.2
2018-09-22T06:02:33.471Z,7.3
2018-09-22T06:03:35.505Z,7.3
2018-09-22T06:04:37.137Z,7.3
2018-09-22T06:05:38.730Z,7.3
2018-09-22T06:06:40.290Z,7.3
2018-09-22T06:07:41.856Z,7.4
2018-09-22T06:08:43.439Z,7.4
2018-09-22T06:09:45.523Z,7.4
2018-09-22T06:10:47.093Z,7.4
2018-09-22T06:11:48.504Z,7.5
2018-09-22T06:12:50.078Z,7.5
2018-09-22T06:13:51.661Z,7.5
2018-09-22T06:14:53.229Z,7.6
2018-09-22T06:15:54.797Z,7.6
2018-09-22T06:16:56.375Z,7.6
2018-09-22T06:17:57.946Z,7.7
2018-09-22T06:18:59.498Z,7.7
2018-09-22T06:20:01.078Z,7.8
2018-09-22T06:21:03.149Z,7.8
2018-09-22T06:22:04.789Z,7.8
2018-09-22T06:23:06.898Z,7.9
2018-09-22T06:24:08.361Z,7.9
2018-09-22T06:25:09.972Z,7.9
2018-09-22T06:26:11.571Z,7.9
2018-09-22T06:27:13.153Z,7.9
2018-09-22T06:28:14.734Z,7.9
2018-09-22T06:29:16.144Z,7.9
2018-09-22T06:30:17.704Z,7.9
2018-09-22T06:31:19.283Z,7.9
2018-09-22T06:32:20.859Z,7.9
2018-09-22T06:33:22.440Z,7.9
2018-09-22T06:34:24.012Z,7.9
2018-09-22T06:35:25.582Z,7.9
2018-09-22T06:36:27.154Z,7.9
2018-09-22T06:37:29.224Z,7.9
2018-09-22T06:38:30.494Z,7.9
2018-09-22T06:39:32.055Z,7.8
2018-09-22T06:40:33.620Z,7.8
2018-09-22T06:41:35.097Z,7.8
2018-09-22T06:42:36.529Z,7.8
2018-09-22T06:43:38.101Z,7.8
2018-09-22T06:44:39.683Z,7.8
2018-09-22T06:45:41.259Z,7.8
2018-09-22T06:46:42.829Z,7.8
2018-09-22T06:47:44.408Z,7.8
2018-09-22T06:48:45.970Z,7.8
2018-09-22T06:49:47.558Z,7.8
2018-09-22T06:50:49.128Z,7.8
2018-09-22T06:51:50.725Z,7.8
2018-09-22T06:52:52.148Z,7.8
2018-09-22T06:53:53.706Z,7.8
2018-09-22T06:54:55.737Z,7.8
2018-09-22T06:55:57.368Z,7.8
2018-09-22T06:56:58.957Z,7.8
2018-09-22T06:59:10.113Z,7.8
2018-09-22T07:00:11.836Z,7.8
2018-09-22T07:01:13.636Z,7.8
2018-09-22T07:02:15.207Z,7.8
2018-09-22T07:03:16.806Z,7.8
2018-09-22T07:04:18.399Z,7.8
2018-09-22T07:05:20.004Z,7.8
2018-09-22T07:06:21.821Z,7.8
2018-09-22T07:07:23.471Z,7.8
2018-09-22T07:08:25.047Z,7.8
2018-09-22T07:09:26.652Z,7.8
2018-09-22T07:10:28.238Z,7.8
2018-09-22T07:11:29.833Z,7.8
2018-09-22T07:12:31.417Z,7.8
2018-09-22T07:13:32.854Z,7.8
2018-09-22T07:14:34.472Z,7.8
2018-09-22T07:15:36.074Z,7.8
2018-09-22T07:16:37.677Z,7.8
2018-09-22T07:17:39.275Z,7.8
2018-09-22T07:18:40.847Z,7.8
2018-09-22T07:19:42.469Z,7.8
2018-09-22T07:20:44.060Z,7.8
2018-09-22T07:21:45.659Z,7.8
2018-09-22T07:22:47.265Z,7.8
2018-09-22T07:23:48.875Z,7.8
2018-09-22T07:24:50.476Z,7.8
2018-09-22T07:25:52.073Z,7.8
2018-09-22T07:26:53.687Z,7.8
2018-09-22T07:27:55.268Z,7.8
2018-09-22T07:28:56.847Z,7.8
2018-09-22T07:29:58.268Z,7.8
2018-09-22T07:31:00.542Z,7.8
2018-09-22T07:32:01.829Z,7.7
2018-09-22T07:33:03.070Z,7.7
2018-09-22T07:34:04.498Z,7.6
2018-09-22T07:35:05.927Z,7.5
2018-09-22T07:36:07.536Z,7.4
2018-09-22T07:37:09.107Z,7.3
2018-09-22T07:38:10.681Z,7.2
2018-09-22T07:39:12.249Z,7.2
2018-09-22T07:40:13.839Z,7.2
2018-09-22T07:41:15.424Z,7.2
2018-09-22T07:42:17.032Z,7.2
2018-09-22T07:43:18.602Z,7.2
2018-09-22T07:44:20.195Z,7.2
2018-09-22T07:45:21.764Z,7.2
2018-09-22T07:46:23.344Z,7.2
2018-09-22T07:47:24.917Z,7.2
2018-09-22T07:48:26.813Z,7.2
2018-09-22T07:49:28.540Z,7.2
2018-09-22T07:50:30.133Z,7.2
2018-09-22T07:51:31.536Z,7.2
2018-09-22T07:52:32.959Z,7.2
2018-09-22T07:53:34.608Z,7.2
2018-09-22T07:54:36.204Z,7.2
2018-09-22T07:55:37.778Z,7.2
2018-09-22T07:56:39.351Z,7.2
2018-09-22T07:57:40.924Z,7.2
2018-09-22T07:58:42.488Z,7.2
2018-09-22T07:59:44.223Z,7.2
2018-09-22T08:01:55.364Z,7.2
2018-09-22T08:02:56.876Z,7.2
2018-09-22T08:03:58.507Z,7.2
2018-09-22T08:05:00.140Z,7.2
2018-09-22T08:06:01.724Z,7.2
2018-09-22T08:07:03.309Z,7.2
2018-09-22T08:08:04.901Z,7.2
2018-09-22T08:09:06.492Z,7.2
2018-09-22T08:10:08.089Z,7.2
2018-09-22T08:11:09.517Z,7.2
2018-09-22T08:12:11.089Z,7.2
2018-09-22T08:13:12.512Z,7.3
2018-09-22T08:14:14.089Z,7.3
2018-09-22T08:15:15.674Z,7.3
2018-09-22T08:16:17.271Z,7.3
2018-09-22T08:17:18.913Z,7.4
2018-09-22T08:18:20.322Z,7.4
2018-09-22T08:19:21.927Z,7.4
2018-09-22T08:20:23.318Z,7.5
2018-09-22T08:21:24.886Z,7.5
2018-09-22T08:22:26.459Z,7.5
2018-09-22T08:23:28.029Z,7.6
2018-09-22T08:24:29.613Z,7.6
2018-09-22T08:25:31.200Z,7.6
2018-09-22T08:26:32.771Z,7.6
2018-09-22T08:27:34.361Z,7.7
2018-09-22T08:28:35.952Z,7.7
2018-09-22T08:29:37.577Z,7.7
2018-09-22T08:30:39.178Z,7.8
2018-09-22T08:31:40.766Z,7.8
2018-09-22T08:32:42.362Z,7.8
2018-09-22T08:33:43.968Z,7.9
2018-09-22T08:34:45.378Z,7.9
2018-09-22T08:35:47.004Z,7.9
2018-09-22T08:36:49.461Z,7.9
2018-09-22T08:37:51.165Z,7.9
2018-09-22T08:38:52.760Z,7.9
2018-09-22T08:39:54.194Z,7.9
2018-09-22T08:40:55.766Z,7.9
2018-09-22T08:41:57.337Z,7.9
2018-09-22T08:42:58.902Z,7.9
2018-09-22T08:44:01.280Z,7.9
2018-09-22T08:45:03.069Z,7.9
2018-09-22T08:46:04.639Z,7.9
2018-09-22T08:47:06.224Z,7.9
2018-09-22T08:48:08.061Z,7.9
2018-09-22T08:49:09.721Z,7.9
2018-09-22T08:50:11.782Z,7.9
2018-09-22T08:51:13.972Z,7.9
2018-09-22T08:52:15.648Z,7.9
2018-09-22T08:53:17.233Z,7.9
2018-09-22T08:54:18.645Z,7.9
2018-09-22T08:55:20.253Z,7.9
2018-09-22T08:56:21.825Z,7.9
2018-09-22T08:57:23.401Z,7.9
2018-09-22T08:58:24.973Z,7.9
2018-09-22T08:59:26.558Z,7.9
2018-09-22T09:00:28.482Z,7.9
2018-09-22T09:01:30.121Z,7.9
2018-09-22T09:02:31.728Z,7.9
2018-09-22T09:03:33.149Z,7.9
2018-09-22T09:04:34.740Z,7.9
2018-09-22T09:05:36.384Z,7.9
2018-09-22T09:06:37.973Z,7.9
2018-09-22T09:07:39.577Z,7.9
2018-09-22T09:08:41.009Z,7.9
2018-09-22T09:09:42.651Z,7.9
2018-09-22T09:10:44.243Z,7.9
2018-09-22T09:11:45.828Z,7.9
2018-09-22T09:12:47.392Z,7.9
2018-09-22T09:13:49.461Z,7.9
2018-09-22T09:14:51.096Z,7.9
2018-09-22T09:15:52.658Z,7.9
2018-09-22T09:16:54.413Z,7.9
2018-09-22T09:17:56.001Z,7.8
2018-09-22T09:18:57.588Z,7.8
2018-09-22T09:19:59.002Z,7.9
2018-09-22T09:21:00.567Z,7.9
2018-09-22T09:22:02.156Z,7.9
2018-09-22T09:23:03.755Z,7.9
2018-09-22T09:24:05.355Z,7.8
2018-09-22T09:25:06.941Z,7.8
2018-09-22T09:26:08.532Z,7.8
2018-09-22T09:27:10.129Z,7.7
2018-09-22T09:28:11.699Z,7.7
2018-09-22T09:29:13.310Z,7.6
2018-09-22T09:30:14.898Z,7.5
2018-09-22T09:31:16.497Z,7.4
2018-09-22T09:32:18.089Z,7.2
2018-09-22T09:33:19.668Z,7.2
2018-09-22T09:34:21.240Z,7.2
2018-09-22T09:35:22.818Z,7.2
2018-09-22T09:36:24.425Z,7.2
2018-09-22T09:37:26.008Z,7.2
2018-09-22T09:38:27.581Z,7.2
2018-09-22T09:39:29.176Z,7.2
2018-09-22T09:40:30.745Z,7.2
2018-09-22T09:41:32.318Z,7.2
2018-09-22T09:42:33.720Z,7.2
2018-09-22T09:43:35.593Z,7.2
2018-09-22T09:44:37.196Z,7.2
2018-09-22T09:45:38.767Z,7.2
2018-09-22T09:46:40.348Z,7.2
2018-09-22T09:47:41.925Z,7.2
2018-09-22T09:48:43.318Z,7.2
2018-09-22T09:49:44.906Z,7.2
2018-09-22T09:50:46.546Z,7.2
2018-09-22T09:51:48.142Z,7.2
2018-09-22T09:52:49.748Z,7.2
2018-09-22T09:53:51.328Z,7.2
2018-09-22T09:54:53.301Z,7.2
2018-09-22T09:55:54.886Z,7.2
2018-09-22T09:56:56.449Z,7.2
2018-09-22T09:57:58.038Z,7.2
2018-09-22T09:58:59.613Z,7.2
2018-09-22T10:00:01.198Z,7.2
2018-09-22T10:01:02.769Z,7.2
2018-09-22T10:02:04.348Z,7.2
2018-09-22T10:03:05.938Z,7.2
2018-09-22T10:04:07.503Z,7.2
2018-09-22T10:05:09.082Z,7.2
2018-09-22T10:06:10.678Z,7.2
2018-09-22T10:07:12.282Z,7.2
2018-09-22T10:08:13.872Z,7.2
2018-09-22T10:09:15.466Z,7.2
2018-09-22T10:10:17.050Z,7.2
2018-09-22T10:11:18.619Z,7.2
2018-09-22T10:12:20.198Z,7.2
2018-09-22T10:13:21.782Z,7.3
2018-09-22T10:14:23.368Z,7.3
2018-09-22T10:15:24.935Z,7.3
2018-09-22T10:16:26.505Z,7.3
2018-09-22T10:17:27.904Z,7.3
2018-09-22T10:18:29.471Z,7.4
2018-09-22T10:19:31.079Z,7.4
2018-09-22T10:20:33.036Z,7.4
2018-09-22T10:21:34.638Z,7.5
2018-09-22T10:22:36.235Z,7.5
2018-09-22T10:23:37.653Z,7.6
2018-09-22T10:24:39.237Z,7.6
2018-09-22T10:25:40.795Z,7.6
2018-09-22T10:26:42.359Z,7.7
2018-09-22T10:27:43.943Z,7.7
2018-09-22T10:28:45.754Z,7.7
2018-09-22T10:29:47.372Z,7.8
2018-09-22T10:30:48.949Z,7.8
2018-09-22T10:31:50.565Z,7.8
2018-09-22T10:32:52.161Z,7.8
2018-09-22T10:33:53.728Z,7.9
2018-09-22T10:34:55.328Z,7.9
2018-09-22T10:35:56.902Z,7.9
2018-09-22T10:36:58.478Z,7.9
2018-09-22T10:38:00.060Z,7.9
2018-09-22T10:39:01.650Z,7.9
2018-09-22T10:40:03.243Z,7.8
2018-09-22T10:41:04.827Z,7.8
2018-09-22T10:42:06.671Z,7.8
2018-09-22T10:43:08.379Z,7.8
2018-09-22T10:44:09.947Z,7.8
2018-09-22T10:45:11.540Z,7.8
2018-09-22T10:46:13.118Z,7.9
2018-09-22T10:47:14.769Z,7.8
2018-09-22T10:48:16.360Z,7.8
2018-09-22T10:49:17.928Z,7.8
2018-09-22T10:50:19.513Z,7.8
2018-09-22T10:51:21.119Z,7.8
2018-09-22T10:52:22.699Z,7.8
2018-09-22T10:53:24.108Z,7.8
2018-09-22T10:54:25.699Z,7.8
2018-09-22T10:55:27.273Z,7.9
2018-09-22T10:56:28.851Z,7.9
2018-09-22T10:57:30.441Z,7.8
2018-09-22T10:58:32.153Z,7.8
2018-09-22T10:59:33.768Z,7.8
2018-09-22T11:00:35.193Z,7.8
2018-09-22T11:01:36.441Z,7.8
2018-09-22T11:02:38.616Z,7.8
2018-09-22T11:03:41.975Z,7.8
2018-09-22T11:04:43.712Z,7.8
2018-09-22T11:05:45.300Z,7.8
2018-09-22T11:06:46.896Z,7.8
2018-09-22T11:07:48.506Z,7.8
2018-09-22T11:08:50.098Z,7.8
2018-09-22T11:09:51.701Z,7.8
2018-09-22T11:10:53.292Z,7.8
2018-09-22T11:11:54.877Z,7.8
2018-09-22T11:12:56.528Z,7.8
2018-09-22T11:13:57.789Z,7.8
2018-09-22T11:14:59.379Z,7.8
2018-09-22T11:16:00.955Z,7.7
2018-09-22T11:17:02.555Z,7.7
2018-09-22T11:18:04.412Z,7.6
2018-09-22T11:19:05.980Z,7.5
2018-09-22T11:20:07.567Z,7.4
2018-09-22T11:21:09.138Z,7.4
2018-09-22T11:22:10.558Z,7.2
2018-09-22T11:23:12.123Z,7.2
2018-09-22T11:24:13.547Z,7.2
2018-09-22T11:25:15.130Z,7.2
2018-09-22T11:26:16.714Z,7.2
2018-09-22T11:27:18.321Z,7.2
2018-09-22T11:28:19.889Z,7.2
2018-09-22T11:29:21.482Z,7.2
2018-09-22T11:30:23.052Z,7.2
2018-09-22T11:31:24.650Z,7.2
2018-09-22T11:32:26.306Z,7.2
2018-09-22T11:33:27.885Z,7.2
2018-09-22T11:34:29.476Z,7.2
2018-09-22T11:35:31.049Z,7.2
2018-09-22T11:36:32.655Z,7.2
2018-09-22T11:37:34.245Z,7.2
2018-09-22T11:38:35.850Z,7.2
2018-09-22T11:39:37.281Z,7.2
2018-09-22T11:40:39.080Z,7.2
2018-09-22T11:41:40.653Z,7.2
2018-09-22T11:42:42.238Z,7.2
2018-09-22T11:43:43.668Z,7.2
2018-09-22T11:44:45.493Z,7.3
2018-09-22T11:45:46.889Z,7.3
2018-09-22T11:46:48.506Z,7.4
2018-09-22T11:47:50.087Z,7.4
2018-09-22T11:48:51.686Z,7.5
2018-09-22T11:49:53.255Z,7.6
2018-09-22T11:50:54.666Z,7.7
2018-09-22T11:51:56.240Z,7.8
2018-09-22T11:52:57.835Z,7.9
2018-09-22T11:53:59.428Z,7.9
2018-09-22T11:55:01.002Z,7.9
2018-09-22T11:56:02.831Z,7.9
2018-09-22T11:57:04.423Z,7.9
2018-09-22T11:58:05.999Z,7.9
2018-09-22T11:59:07.572Z,7.9
2018-09-22T12:00:09.686Z,7.9
2018-09-22T12:01:11.286Z,7.9
2018-09-22T12:02:12.726Z,7.9
2018-09-22T12:03:14.331Z,7.9
2018-09-22T12:04:15.900Z,7.9
2018-09-22T12:05:17.333Z,7.9
2018-09-22T12:06:19.674Z,7.9
2018-09-22T12:07:21.336Z,7.9
2018-09-22T12:08:22.943Z,7.9
2018-09-22T12:09:24.512Z,7.9
2018-09-22T12:10:26.120Z,7.9
2018-09-22T12:11:27.590Z,7.9
2018-09-22T12:12:29.183Z,7.9
2018-09-22T12:13:30.981Z,7.9
2018-09-22T12:14:32.581Z,7.9
2018-09-22T12:15:34.170Z,7.9
2018-09-22T12:16:35.735Z,7.9
2018-09-22T12:17:37.335Z,7.9
2018-09-22T12:18:38.786Z,7.9
2018-09-22T12:19:40.359Z,7.9
2018-09-22T12:20:41.992Z,7.9
2018-09-22T12:21:43.582Z,7.9
2018-09-22T12:22:45.182Z,7.9
2018-09-22T12:23:46.631Z,7.9
2018-09-22T12:24:48.204Z,7.9
2018-09-22T12:25:49.636Z,7.9
2018-09-22T12:26:51.219Z,7.9
2018-09-22T12:27:52.798Z,7.9
2018-09-22T12:28:54.391Z,7.9
2018-09-22T12:29:56.014Z,7.9
2018-09-22T12:30:57.432Z,7.9
2018-09-22T12:31:59.484Z,7.9
2018-09-22T12:33:01.091Z,7.9
2018-09-22T12:34:02.682Z,7.9
2018-09-22T12:35:03.958Z,7.9
2018-09-22T12:36:05.549Z,7.9
2018-09-22T12:37:07.151Z,7.9
2018-09-22T12:38:08.569Z,7.9
2018-09-22T12:39:10.174Z,7.9
2018-09-22T12:40:11.731Z,7.9
2018-09-22T12:41:13.324Z,7.9
2018-09-22T12:42:14.912Z,7.9
2018-09-22T12:43:16.508Z,7.9
2018-09-22T12:44:17.937Z,7.9
2018-09-22T12:45:19.508Z,7.9
2018-09-22T12:46:21.125Z,7.9
2018-09-22T12:47:22.710Z,7.9
2018-09-22T12:48:24.277Z,7.9
2018-09-22T12:49:26.461Z,7.9
2018-09-22T12:50:28.287Z,7.9
2018-09-22T12:51:29.870Z,7.9
2018-09-22T12:52:31.437Z,7.9
2018-09-22T12:53:33.312Z,7.9
2018-09-22T12:54:34.883Z,7.9
2018-09-22T12:55:36.469Z,7.8
2018-09-22T12:56:37.881Z,7.8
2018-09-22T12:57:39.480Z,7.8
2018-09-22T12:58:41.058Z,7.7
2018-09-22T12:59:42.649Z,7.6
2018-09-22T13:00:44.227Z,7.5
2018-09-22T13:01:45.679Z,7.4
2018-09-22T13:02:47.260Z,7.3
2018-09-22T13:03:49.185Z,7.2
2018-09-22T13:04:50.766Z,7.2
2018-09-22T13:05:52.191Z,7.2
2018-09-22T13:06:53.479Z,7.2
2018-09-22T13:07:55.096Z,7.2
2018-09-22T13:08:56.703Z,7.2
2018-09-22T13:09:58.283Z,7.2
2018-09-22T13:10:59.873Z,7.2
2018-09-22T13:12:01.468Z,7.2
2018-09-22T13:13:03.044Z,7.2
2018-09-22T13:14:04.662Z,7.2
2018-09-22T13:15:06.266Z,7.2
2018-09-22T13:16:07.847Z,7.2
2018-09-22T13:17:09.445Z,7.2
2018-09-22T13:18:11.054Z,7.2
2018-09-22T13:19:12.312Z,7.2
2018-09-22T13:20:14.448Z,7.2
2018-09-22T13:21:16.079Z,7.2
2018-09-22T13:22:17.653Z,7.2
2018-09-22T13:23:19.137Z,7.2
2018-09-22T13:24:20.718Z,7.2
2018-09-22T13:25:22.288Z,7.2
2018-09-22T13:26:23.710Z,7.2
2018-09-22T13:27:25.133Z,7.2
2018-09-22T13:28:26.540Z,7.2
2018-09-22T13:29:28.122Z,7.2
2018-09-22T13:30:29.707Z,7.2
2018-09-22T13:31:31.475Z,7.2
2018-09-22T13:32:32.888Z,7.2
2018-09-22T13:33:34.593Z,7.2
2018-09-22T13:34:36.189Z,7.2
2018-09-22T13:35:37.779Z,7.2
2018-09-22T13:36:39.368Z,7.2
2018-09-22T13:37:40.953Z,7.2
2018-09-22T13:38:43.093Z,7.2
2018-09-22T13:39:44.756Z,7.2
2018-09-22T13:40:46.369Z,7.2
2018-09-22T13:41:47.969Z,7.2
2018-09-22T13:42:49.403Z,7.2
2018-09-22T13:43:51.013Z,7.3
2018-09-22T13:44:52.623Z,7.3
2018-09-22T13:45:54.236Z,7.3
2018-09-22T13:46:55.831Z,7.4
2018-09-22T13:47:57.254Z,7.4
2018-09-22T13:48:58.850Z,7.4
2018-09-22T13:50:00.426Z,7.5
2018-09-22T13:51:01.868Z,7.5
2018-09-22T13:52:03.499Z,7.5
2018-09-22T13:53:05.107Z,7.6
2018-09-22T13:54:06.705Z,7.6
2018-09-22T13:55:08.137Z,7.6
2018-09-22T13:56:09.966Z,7.6
2018-09-22T13:57:11.411Z,7.7
2018-09-22T13:58:13.028Z,7.7
2018-09-22T13:59:14.636Z,7.7
2018-09-22T14:00:16.244Z,7.8
2018-09-22T14:01:17.833Z,7.8
2018-09-22T14:02:19.426Z,7.8
2018-09-22T14:03:21.034Z,7.8
2018-09-22T14:04:22.630Z,7.8
2018-09-22T14:05:24.216Z,7.8
2018-09-22T14:06:26.003Z,7.9
2018-09-22T14:07:27.582Z,7.9
2018-09-22T14:08:29.207Z,7.9
2018-09-22T14:09:30.775Z,7.9
2018-09-22T14:10:32.799Z,7.9